Time;durP1;ratioP1;P1;durP2;ratioP2;P2;SDS_P1;SDS_P2;PMS_P1;PMS_P2;Temp;Humidity;BMP_temperature;BMP_pressure;BME280_temperature;BME280_humidity;BME280_pressure;Samples;Min_cycle;Max_cycle;Signal;HPM_P1;HPM_P2
2022/05/14 00:01:25;;;;;;;4.93;3.70;;;;;9.30;96781.00;;;;8378193;28;20764;-67
2022/05/14 00:05:29;;;;;;;5.87;3.93;;;;;9.20;96777.00;;;;8369200;28;20255;-65
2022/05/14 00:09:32;;;;;;;13.93;4.17;;;;;9.20;96774.00;;;;8376704;28;20235;-66
2022/05/14 00:13:36;;;;;;;6.30;3.97;;;;;9.20;96772.00;;;;8371875;28;20623;-65
2022/05/14 00:17:39;;;;;;;7.73;4.30;;;;;9.10;96767.00;;;;8376027;28;20661;-66
2022/05/14 00:21:42;;;;;;;10.23;4.47;;;;;9.00;96768.00;;;;8372254;28;20223;-65
2022/05/14 00:25:46;;;;;;;8.80;4.40;;;;;8.90;96761.00;;;;8373409;28;20230;-65
2022/05/14 00:29:50;;;;;;;9.67;5.17;;;;;8.90;96761.00;;;;8374593;28;20238;-65
2022/05/14 00:33:54;;;;;;;8.87;4.93;;;;;8.90;96761.00;;;;8364162;28;20789;-64
2022/05/14 00:37:57;;;;;;;10.73;4.77;;;;;8.90;96759.00;;;;8370246;28;20223;-65
2022/05/14 00:42:00;;;;;;;11.97;4.67;;;;;8.90;96761.00;;;;8362034;28;20727;-65
2022/05/14 00:46:13;;;;;;;10.00;4.30;;;;;8.80;96759.00;;;;8370297;28;20700;-65
2022/05/14 00:50:23;;;;;;;7.90;4.93;;;;;8.80;96756.00;;;;8372030;28;20212;-66
2022/05/14 00:54:37;;;;;;;9.87;4.67;;;;;8.80;96758.00;;;;8362031;28;20472;-64
2022/05/14 00:58:46;;;;;;;12.17;4.80;;;;;8.70;96754.00;;;;8377202;28;20789;-63
2022/05/14 01:02:51;;;;;;;7.73;4.17;;;;;8.60;96758.00;;;;8365361;28;20229;-66
2022/05/14 01:06:58;;;;;;;7.23;4.50;;;;;8.60;96746.00;;;;8373094;28;20227;-65
2022/05/14 01:11:01;;;;;;;5.53;4.20;;;;;8.50;96762.00;;;;8373179;28;20231;-65
2022/05/14 01:15:13;;;;;;;10.77;4.00;;;;;8.50;96762.00;;;;8372047;28;20306;-65
2022/05/14 01:19:18;;;;;;;8.07;4.50;;;;;8.50;96753.00;;;;8368299;28;20282;-66
2022/05/14 01:26:27;;;;;;;11.30;4.33;;;;;8.40;96745.00;;;;8364465;28;20319;-64
2022/05/14 01:28:06;;;;;;;8.93;4.50;;;;;8.30;96744.00;;;;8378831;28;20687;-65
2022/05/14 01:32:09;;;;;;;9.70;5.20;;;;;8.30;96747.00;;;;8369995;27;20232;-64
2022/05/14 01:36:12;;;;;;;9.93;5.03;;;;;8.30;96747.00;;;;8363373;28;20231;-64
2022/05/14 01:40:16;;;;;;;6.93;4.80;;;;;8.30;96743.00;;;;8367689;28;20872;-65
2022/05/14 01:44:21;;;;;;;9.70;4.60;;;;;8.30;96749.00;;;;8371551;28;20319;-65
2022/05/14 01:48:24;;;;;;;8.93;4.50;;;;;8.10;96745.00;;;;8369054;28;20592;-65
2022/05/14 01:52:27;;;;;;;7.47;4.93;;;;;8.10;96745.00;;;;8378042;28;20224;-65
2022/05/14 01:56:31;;;;;;;12.57;5.10;;;;;8.00;96734.00;;;;8381955;28;20271;-65
2022/05/14 02:00:35;;;;;;;12.10;5.73;;;;;8.00;96735.00;;;;8372547;28;20234;-65
2022/05/14 02:04:39;;;;;;;10.37;4.90;;;;;8.00;96748.00;;;;8375617;28;20232;-67
2022/05/14 02:08:42;;;;;;;12.33;4.93;;;;;8.00;96741.00;;;;8382916;28;20228;-66
2022/05/14 02:12:45;;;;;;;10.00;5.37;;;;;7.90;96736.00;;;;8383185;28;20648;-65
2022/05/14 02:16:50;;;;;;;11.00;4.87;;;;;7.90;96742.00;;;;8375423;28;20228;-65
2022/05/14 02:20:53;;;;;;;8.80;4.83;;;;;7.90;96730.00;;;;8377464;28;20231;-64
2022/05/14 02:24:57;;;;;;;7.43;4.80;;;;;7.80;96731.00;;;;8377329;28;20235;-64
2022/05/14 02:29:00;;;;;;;5.60;4.47;;;;;7.70;96726.00;;;;8379772;28;20500;-65
2022/05/14 02:33:05;;;;;;;9.33;4.83;;;;;7.70;96732.00;;;;8376768;28;20237;-66
2022/05/14 02:37:08;;;;;;;6.57;4.10;;;;;7.50;96729.00;;;;8353445;28;20224;-64
2022/05/14 02:41:12;;;;;;;9.00;4.77;;;;;7.40;96724.00;;;;8376266;28;20227;-64
2022/05/14 02:45:15;;;;;;;6.20;4.80;;;;;7.40;96721.00;;;;8373655;28;20332;-65
2022/05/14 02:49:26;;;;;;;9.20;4.83;;;;;7.40;96717.00;;;;8381484;28;21054;-67
2022/05/14 02:53:30;;;;;;;8.27;4.87;;;;;7.30;96719.00;;;;8377880;28;20219;-67
2022/05/14 02:57:33;;;;;;;12.17;5.57;;;;;7.30;96719.00;;;;8378941;28;20693;-63
2022/05/14 03:01:47;;;;;;;7.23;4.70;;;;;7.30;96715.00;;;;8372025;22;20222;-65
2022/05/14 03:05:53;;;;;;;8.30;4.80;;;;;7.20;96713.00;;;;8239991;28;20226;-65
2022/05/14 03:09:56;;;;;;;10.13;5.10;;;;;7.20;96716.00;;;;8243015;28;20958;-66
2022/05/14 03:13:59;;;;;;;7.40;5.60;;;;;7.30;96717.00;;;;8253202;28;20304;-66
2022/05/14 03:18:03;;;;;;;6.93;4.93;;;;;7.40;96719.00;;;;8244033;28;20778;-65
2022/05/14 03:22:07;;;;;;;9.87;4.60;;;;;7.30;96712.00;;;;8243780;28;20273;-66
2022/05/14 03:26:10;;;;;;;7.50;5.10;;;;;7.20;96715.00;;;;8243739;28;20712;-65
2022/05/14 03:30:14;;;;;;;11.17;4.93;;;;;7.20;96722.00;;;;8252114;28;20243;-65
2022/05/14 03:34:17;;;;;;;9.77;4.80;;;;;7.10;96726.00;;;;8243708;28;20230;-66
2022/05/14 03:38:22;;;;;;;7.03;4.73;;;;;7.20;96731.00;;;;8245834;28;20230;-66
2022/05/14 03:42:25;;;;;;;10.50;4.87;;;;;7.20;96730.00;;;;8247633;28;20221;-66
2022/05/14 03:46:29;;;;;;;9.20;4.10;;;;;7.10;96744.00;;;;8246041;28;20284;-67
2022/05/14 03:50:32;;;;;;;6.30;4.77;;;;;7.10;96736.00;;;;8242627;28;20233;-66
2022/05/14 03:54:38;;;;;;;10.37;4.83;;;;;7.00;96736.00;;;;8243767;28;20238;-66
2022/05/14 03:58:41;;;;;;;13.97;5.13;;;;;7.10;96740.00;;;;8236219;28;20677;-66
2022/05/14 04:02:44;;;;;;;8.47;5.47;;;;;7.10;96731.00;;;;8238914;28;20248;-66
2022/05/14 04:06:47;;;;;;;9.53;5.40;;;;;7.20;96734.00;;;;8249132;28;20238;-65
2022/05/14 04:10:52;;;;;;;10.87;5.47;;;;;7.40;96743.00;;;;8248903;28;20599;-66
2022/05/14 04:14:55;;;;;;;8.40;5.37;;;;;7.50;96735.00;;;;8247964;28;20241;-65
2022/05/14 04:18:58;;;;;;;11.00;5.00;;;;;7.60;96743.00;;;;8247118;28;20234;-64
2022/05/14 04:23:01;;;;;;;8.63;5.87;;;;;7.70;96740.00;;;;8247313;28;20264;-66
2022/05/14 04:27:06;;;;;;;11.90;5.90;;;;;7.90;96744.00;;;;8244653;28;20242;-65
2022/05/14 04:31:10;;;;;;;9.83;5.67;;;;;8.10;96758.00;;;;8248776;28;20651;-66
2022/05/14 04:35:15;;;;;;;8.47;5.40;;;;;8.30;96755.00;;;;8244647;28;20703;-65
2022/05/14 04:39:19;;;;;;;8.43;5.67;;;;;8.50;96756.00;;;;8229282;28;20244;-67
2022/05/14 04:43:24;;;;;;;8.93;6.17;;;;;8.70;96757.00;;;;8239769;28;20735;-65
2022/05/14 04:47:27;;;;;;;17.30;7.80;;;;;9.00;96754.00;;;;8247340;28;20233;-66
2022/05/14 04:51:31;;;;;;;10.60;6.90;;;;;9.30;96763.00;;;;8247868;28;20235;-66
2022/05/14 04:55:34;;;;;;;10.57;6.80;;;;;9.60;96766.00;;;;8238009;28;20244;-67
2022/05/14 04:59:39;;;;;;;12.70;7.07;;;;;9.90;96763.00;;;;8245536;28;20226;-67
2022/05/14 05:03:42;;;;;;;14.87;7.00;;;;;10.20;96766.00;;;;8238467;28;20241;-66
2022/05/14 05:07:47;;;;;;;11.67;6.47;;;;;10.50;96759.00;;;;8236879;28;20234;-70
2022/05/14 05:11:50;;;;;;;13.37;6.50;;;;;10.80;96769.00;;;;8239315;28;20850;-68
2022/05/14 05:15:55;;;;;;;9.10;5.00;;;;;11.20;96776.00;;;;8234446;28;20234;-68
2022/05/14 05:19:59;;;;;;;13.77;5.77;;;;;11.70;96784.00;;;;8249877;28;20257;-68
2022/05/14 05:24:05;;;;;;;6.23;5.43;;;;;12.00;96778.00;;;;8248238;28;20249;-70
2022/05/14 05:28:09;;;;;;;11.68;5.55;;;;;12.40;96782.00;;;;8253442;28;20226;-69
2022/05/14 05:32:13;;;;;;;9.75;5.43;;;;;12.80;96778.00;;;;8253314;28;20230;-67
2022/05/14 05:36:16;;;;;;;7.15;4.95;;;;;13.20;96785.00;;;;8253496;28;20227;-68
2022/05/14 05:40:20;;;;;;;8.10;4.82;;;;;13.70;96788.00;;;;8247012;28;20225;-68
2022/05/14 05:44:23;;;;;;;12.40;4.50;;;;;14.20;96794.00;;;;8255636;28;20250;-68
2022/05/14 05:48:28;;;;;;;6.45;4.28;;;;;14.60;96789.00;;;;8249075;28;20324;-68
2022/05/14 05:52:32;;;;;;;8.68;4.47;;;;;15.10;96796.00;;;;8249706;28;20958;-68
2022/05/14 05:56:46;;;;;;;6.88;3.97;;;;;15.60;96795.00;;;;8244552;28;20306;-69
2022/05/14 06:00:49;;;;;;;9.68;4.32;;;;;16.10;96786.00;;;;8234641;28;21817;-70
2022/05/14 06:04:54;;;;;;;6.25;3.60;;;;;16.60;96791.00;;;;8238147;28;20247;-72
2022/05/14 06:08:57;;;;;;;7.82;4.40;;;;;16.90;96801.00;;;;8250798;28;20971;-72
2022/05/14 06:13:01;;;;;;;4.53;3.55;;;;;17.30;96796.00;;;;8242391;28;20227;-71
2022/05/14 06:17:05;;;;;;;7.22;3.70;;;;;17.40;96799.00;;;;8252473;28;20233;-73
2022/05/14 06:21:10;;;;;;;5.80;4.03;;;;;17.50;96801.00;;;;8247053;28;20261;-72
2022/05/14 06:25:14;;;;;;;5.97;3.65;;;;;17.80;96806.00;;;;8248494;28;20241;-74
2022/05/14 06:29:18;;;;;;;4.97;3.80;;;;;18.30;96816.00;;;;8244891;28;20226;-78
2022/05/14 06:33:21;;;;;;;4.30;2.70;;;;;19.10;96815.00;;;;8216268;28;20233;-69
2022/05/14 06:37:26;;;;;;;5.60;3.20;;;;;20.00;96815.00;;;;8218995;28;20265;-75
2022/05/14 06:41:30;;;;;;;4.80;3.08;;;;;20.90;96814.00;;;;8240867;28;20246;-67
2022/05/14 06:45:34;;;;;;;10.70;2.92;;;;;21.70;96816.00;;;;8240149;28;21077;-68
2022/05/14 06:49:37;;;;;;;5.53;2.83;;;;;22.30;96828.00;;;;8235620;28;20246;-74
2022/05/14 06:53:43;;;;;;;4.78;2.72;;;;;22.80;96823.00;;;;8242402;28;20341;-72
2022/05/14 06:57:47;;;;;;;6.32;2.47;;;;;23.30;96832.00;;;;8233220;28;20681;-72
2022/05/14 07:01:51;;;;;;;5.72;3.08;;;;;23.70;96841.00;;;;8230117;28;20222;-75
2022/05/14 07:10:17;;;;;;;5.85;2.60;;;;;24.30;96833.00;;;;8239104;28;20298;-78
2022/05/14 07:14:21;;;;;;;2.38;2.17;;;;;24.60;96832.00;;;;8237596;28;20219;-68
2022/05/14 07:18:24;;;;;;;3.67;2.75;;;;;24.90;96831.00;;;;8242146;28;20584;-75
2022/05/14 07:22:27;;;;;;;5.30;2.95;;;;;25.10;96839.00;;;;8247384;28;20326;-74
2022/05/14 07:26:34;;;;;;;5.20;2.47;;;;;25.30;96835.00;;;;8250141;28;20329;-72
2022/05/14 07:30:37;;;;;;;7.80;2.50;;;;;25.50;96834.00;;;;8251401;28;20223;-74
2022/05/14 07:34:41;;;;;;;4.88;2.33;;;;;25.70;96830.00;;;;8246134;28;20301;-69
2022/05/14 07:38:45;;;;;;;9.02;2.40;;;;;25.90;96830.00;;;;8246003;28;20226;-72
2022/05/14 07:42:54;;;;;;;7.97;2.33;;;;;26.00;96826.00;;;;8251132;28;20677;-74
2022/05/14 07:46:58;;;;;;;4.88;2.20;;;;;26.50;96831.00;;;;8245302;28;20266;-76
2022/05/14 07:51:03;;;;;;;6.80;2.28;;;;;26.50;96825.00;;;;8245536;28;20277;-69
2022/05/14 07:55:08;;;;;;;7.70;2.75;;;;;26.40;96830.00;;;;8250613;28;20219;-69
2022/05/14 07:59:13;;;;;;;3.55;2.17;;;;;27.00;96825.00;;;;8248206;28;20285;-74
2022/05/14 08:03:17;;;;;;;4.78;2.13;;;;;27.30;96835.00;;;;8249466;28;20257;-68
2022/05/14 08:07:20;;;;;;;3.90;2.10;;;;;27.80;96831.00;;;;8247059;28;20937;-71
2022/05/14 08:11:24;;;;;;;4.32;2.15;;;;;27.60;96828.00;;;;8241886;28;20249;-72
2022/05/14 08:15:29;;;;;;;4.97;1.83;;;;;27.40;96826.00;;;;8243132;28;20317;-70
2022/05/14 08:19:32;;;;;;;7.72;2.45;;;;;27.60;96825.00;;;;8247894;28;20325;-70
2022/05/14 08:27:56;;;;;;;4.78;2.05;;;;;28.50;96821.00;;;;8243960;28;20222;-68
2022/05/14 08:32:04;;;;;;;4.95;2.17;;;;;28.30;96823.00;;;;8247375;28;20245;-68
2022/05/14 08:36:11;;;;;;;4.07;1.65;;;;;28.20;96826.00;;;;8235273;28;20230;-68
2022/05/14 08:40:19;;;;;;;4.40;1.60;;;;;28.30;96832.00;;;;8244107;28;20933;-69
2022/05/14 08:44:30;;;;;;;3.08;1.50;;;;;28.40;96821.00;;;;8242276;28;20588;-68
2022/05/14 08:48:37;;;;;;;3.83;1.58;;;;;28.50;96828.00;;;;8245402;28;20650;-71
2022/05/14 08:52:41;;;;;;;6.05;1.73;;;;;28.80;96826.00;;;;8247162;28;20314;-68
2022/05/14 08:56:48;;;;;;;11.52;2.08;;;;;29.00;96829.00;;;;8248790;28;20249;-69
2022/05/14 09:00:51;;;;;;;5.00;1.52;;;;;29.10;96828.00;;;;8251794;28;20729;-69
2022/05/14 09:05:02;;;;;;;5.70;1.60;;;;;29.10;96832.00;;;;8255857;28;20230;-69
2022/05/14 09:09:07;;;;;;;3.13;1.60;;;;;29.30;96833.00;;;;8253025;28;20254;-68
2022/05/14 09:13:15;;;;;;;3.95;1.80;;;;;29.50;96829.00;;;;8246313;28;20240;-68
2022/05/14 09:17:21;;;;;;;3.58;1.60;;;;;29.70;96827.00;;;;8249588;28;20625;-65
2022/05/14 09:21:28;;;;;;;3.10;1.30;;;;;30.40;96829.00;;;;8253526;28;20310;-65
2022/05/14 09:25:36;;;;;;;3.40;1.60;;;;;30.80;96822.00;;;;8253062;28;20252;-65
2022/05/14 09:29:42;;;;;;;7.38;1.83;;;;;31.20;96828.00;;;;8251687;28;20230;-65
2022/05/14 09:33:45;;;;;;;1.42;1.27;;;;;31.50;96812.00;;;;8245621;28;20229;-63
2022/05/14 09:38:12;;;;;;;2.80;1.80;;;;;31.90;96810.00;;;;8245892;28;20799;-65
2022/05/14 09:42:27;;;;;;;2.13;1.35;;;;;31.90;96813.00;;;;8246833;28;20229;-64
2022/05/14 09:46:32;;;;;;;3.45;1.88;;;;;31.70;96809.00;;;;8249270;28;20249;-64
2022/05/14 09:50:36;;;;;;;4.93;1.60;;;;;31.80;96807.00;;;;8248043;28;20231;-65
2022/05/14 09:54:45;;;;;;;9.35;2.10;;;;;31.30;96802.00;;;;8250957;28;20224;-71
2022/05/14 09:58:57;;;;;;;4.85;1.73;;;;;31.10;96810.00;;;;8252423;28;20274;-70
2022/05/14 10:03:14;;;;;;;6.53;1.90;;;;;31.60;96810.00;;;;8248495;28;20313;-71
2022/05/14 10:07:24;;;;;;;3.63;1.60;;;;;32.30;96812.00;;;;8251563;28;20671;-71
2022/05/14 10:11:31;;;;;;;1.58;1.30;;;;;32.50;96812.00;;;;8249196;28;20321;-71
2022/05/14 10:15:41;;;;;;;1.58;1.45;;;;;32.50;96800.00;;;;8252716;28;20230;-72
2022/05/14 10:20:07;;;;;;;2.67;1.70;;;;;32.00;96807.00;;;;8250723;28;20319;-71
2022/05/14 10:28:59;;;;;;;3.45;1.80;;;;;31.70;96800.00;;;;8249429;28;20286;-72
2022/05/14 10:33:04;;;;;;;3.63;1.70;;;;;31.70;96797.00;;;;8249427;28;20837;-71
2022/05/14 10:37:16;;;;;;;3.22;1.92;;;;;31.70;96789.00;;;;8252178;28;20233;-70
2022/05/14 10:41:31;;;;;;;3.97;1.40;;;;;31.70;96792.00;;;;8250291;28;20254;-70
2022/05/14 10:45:41;;;;;;;3.72;1.52;;;;;32.00;96790.00;;;;8248480;28;20261;-70
2022/05/14 10:49:53;;;;;;;2.70;1.63;;;;;32.60;96786.00;;;;8242298;28;20237;-72
2022/05/14 10:53:59;;;;;;;3.95;1.77;;;;;32.90;96783.00;;;;8249517;28;20239;-71
2022/05/14 10:58:07;;;;;;;4.82;1.30;;;;;32.50;96785.00;;;;8250708;28;20230;-72
2022/05/14 11:02:15;;;;;;;3.25;1.27;;;;;31.80;96780.00;;;;8248472;28;20726;-71
2022/05/14 11:06:29;;;;;;;3.30;1.65;;;;;32.20;96778.00;;;;8241029;28;20324;-71
2022/05/14 11:10:35;;;;;;;3.95;1.70;;;;;31.90;96781.00;;;;8242735;28;20227;-72
2022/05/14 11:14:41;;;;;;;3.30;1.50;;;;;32.00;96783.00;;;;8242745;28;21038;-72
2022/05/14 11:18:48;;;;;;;1.67;1.48;;;;;32.70;96777.00;;;;8245155;28;20313;-72
2022/05/14 11:23:03;;;;;;;3.70;1.35;;;;;32.50;96769.00;;;;8243326;28;20578;-73
2022/05/14 11:27:07;;;;;;;2.03;1.48;;;;;32.10;96776.00;;;;8250207;28;20241;-73
2022/05/14 11:31:21;;;;;;;3.30;1.33;;;;;32.10;96763.00;;;;8247953;28;20225;-72
2022/05/14 11:35:37;;;;;;;3.70;1.50;;;;;32.60;96756.00;;;;8242070;28;20574;-72
2022/05/14 11:39:41;;;;;;;1.42;1.33;;;;;32.60;96754.00;;;;8240309;28;20227;-72
2022/05/14 11:43:51;;;;;;;2.47;1.27;;;;;32.50;96760.00;;;;8237091;28;20223;-73
2022/05/14 11:48:04;;;;;;;3.38;1.48;;;;;32.60;96766.00;;;;8241279;28;20230;-72
2022/05/14 11:52:19;;;;;;;2.80;1.20;;;;;32.50;96751.00;;;;8235448;28;20966;-72
2022/05/14 11:56:31;;;;;;;2.17;1.50;;;;;32.80;96750.00;;;;8246723;28;20281;-73
2022/05/14 12:00:35;;;;;;;7.45;1.10;;;;;32.90;96749.00;;;;8242037;28;20854;-73
2022/05/14 12:04:43;;;;;;;4.10;1.40;;;;;32.30;96747.00;;;;8239375;28;20250;-72
2022/05/14 12:09:10;;;;;;;2.40;1.33;;;;;32.70;96744.00;;;;8235010;28;20230;-71
2022/05/14 12:13:21;;;;;;;2.47;1.17;;;;;32.60;96741.00;;;;8243290;28;21433;-71
2022/05/14 12:17:27;;;;;;;1.42;1.30;;;;;32.60;96746.00;;;;8238372;28;20231;-71
2022/05/14 12:21:31;;;;;;;4.68;1.45;;;;;32.00;96736.00;;;;8235877;28;20277;-71
2022/05/14 12:25:39;;;;;;;2.08;1.60;;;;;31.40;96741.00;;;;8237950;28;20230;-71
2022/05/14 12:29:53;;;;;;;1.40;1.30;;;;;30.60;96731.00;;;;8234859;28;20241;-71
2022/05/14 12:34:00;;;;;;;2.70;1.40;;;;;30.40;96727.00;;;;8239261;28;20232;-72
2022/05/14 12:38:05;;;;;;;1.63;1.20;;;;;29.60;96713.00;;;;8220856;28;20231;-72
2022/05/14 12:42:11;;;;;;;1.85;1.40;;;;;29.20;96718.00;;;;8235059;28;20327;-71
2022/05/14 12:46:15;;;;;;;2.03;1.30;;;;;28.90;96712.00;;;;8228685;28;20230;-71
2022/05/14 12:50:22;;;;;;;1.80;1.20;;;;;28.40;96711.00;;;;8237539;28;20241;-71
2022/05/14 12:54:27;;;;;;;1.42;1.33;;;;;28.20;96704.00;;;;8242000;28;20254;-71
2022/05/14 12:58:33;;;;;;;2.20;1.20;;;;;27.90;96705.00;;;;8235930;28;20235;-71
2022/05/14 13:02:41;;;;;;;3.05;1.55;;;;;28.00;96692.00;;;;8242976;28;20236;-72
2022/05/14 13:06:46;;;;;;;2.97;1.40;;;;;28.10;96695.00;;;;8242452;28;20231;-70
2022/05/14 13:10:52;;;;;;;1.73;1.50;;;;;28.10;96695.00;;;;8242010;28;20313;-71
2022/05/14 13:14:59;;;;;;;2.85;1.33;;;;;28.30;96682.00;;;;8244284;28;20230;-73
2022/05/14 13:19:18;;;;;;;1.50;1.20;;;;;28.80;96686.00;;;;8243267;28;20269;-72
2022/05/14 13:23:22;;;;;;;2.83;1.40;;;;;29.40;96683.00;;;;8239981;28;20233;-73
2022/05/14 13:27:32;;;;;;;3.15;1.50;;;;;29.90;96682.00;;;;8240269;28;20313;-72
2022/05/14 13:31:36;;;;;;;2.35;1.35;;;;;30.30;96683.00;;;;8242215;28;20303;-73
2022/05/14 13:40:10;;;;;;;2.38;1.15;;;;;30.50;96670.00;;;;8234709;28;20313;-72
2022/05/14 13:44:18;;;;;;;1.95;1.20;;;;;31.60;96663.00;;;;8243117;28;20226;-72
2022/05/14 13:48:38;;;;;;;1.30;1.15;;;;;32.10;96657.00;;;;8247792;28;20982;-71
2022/05/14 13:52:51;;;;;;;3.17;1.40;;;;;32.40;96654.00;;;;8247527;28;20330;-73
2022/05/14 13:57:01;;;;;;;1.77;1.13;;;;;32.40;96654.00;;;;8245300;28;20278;-73
2022/05/14 14:01:07;;;;;;;2.40;1.27;;;;;32.50;96646.00;;;;8244743;28;20237;-72
2022/05/14 14:05:16;;;;;;;4.75;1.20;;;;;32.20;96651.00;;;;8250613;28;20745;-75
2022/05/14 14:09:19;;;;;;;2.03;1.20;;;;;32.20;96645.00;;;;8250162;28;20226;-75
2022/05/14 14:13:23;;;;;;;1.27;1.10;;;;;32.00;96638.00;;;;8248527;28;20226;-71
2022/05/14 14:17:27;;;;;;;1.60;1.25;;;;;31.50;96648.00;;;;8246514;28;20281;-74
2022/05/14 14:21:31;;;;;;;1.30;1.20;;;;;31.30;96639.00;;;;8251608;28;20585;-73
2022/05/14 14:25:37;;;;;;;1.25;1.05;;;;;31.60;96634.00;;;;8251436;28;20691;-75
2022/05/14 14:29:40;;;;;;;1.48;1.38;;;;;32.00;96642.00;;;;8249834;28;20717;-73
2022/05/14 14:33:44;;;;;;;1.08;1.00;;;;;32.10;96642.00;;;;8243371;28;20683;-74
2022/05/14 14:37:48;;;;;;;2.80;1.08;;;;;31.80;96635.00;;;;8245312;28;20239;-74
2022/05/14 14:41:52;;;;;;;1.98;1.48;;;;;32.10;96638.00;;;;8238080;28;20321;-74
2022/05/14 14:45:55;;;;;;;5.03;1.15;;;;;32.40;96638.00;;;;8234013;28;20225;-74
2022/05/14 14:49:59;;;;;;;1.15;1.10;;;;;32.20;96635.00;;;;8241067;28;20242;-73
2022/05/14 14:54:04;;;;;;;1.52;1.10;;;;;32.30;96627.00;;;;8244811;28;20234;-72
2022/05/14 14:58:08;;;;;;;1.77;1.10;;;;;32.70;96634.00;;;;8234526;28;20236;-74
2022/05/14 15:02:17;;;;;;;4.38;1.20;;;;;32.90;96626.00;;;;8232689;28;20245;-72
2022/05/14 15:06:21;;;;;;;5.07;1.30;;;;;33.10;96630.00;;;;8236835;28;20214;-73
2022/05/14 15:10:26;;;;;;;1.23;1.15;;;;;33.40;96629.00;;;;8248062;28;20417;-73
2022/05/14 15:14:31;;;;;;;1.20;1.10;;;;;33.20;96620.00;;;;8242369;28;20235;-73
2022/05/14 15:18:34;;;;;;;2.45;1.25;;;;;32.90;96616.00;;;;8241658;28;20340;-72
2022/05/14 15:22:39;;;;;;;1.58;1.10;;;;;32.80;96614.00;;;;8249591;28;20231;-73
2022/05/14 15:26:43;;;;;;;2.58;1.30;;;;;32.60;96616.00;;;;8245733;28;20226;-74
2022/05/14 15:30:47;;;;;;;2.67;1.23;;;;;32.40;96611.00;;;;8238210;28;20230;-72
2022/05/14 15:34:51;;;;;;;2.75;1.63;;;;;32.30;96611.00;;;;8231182;28;20626;-71
2022/05/14 15:38:54;;;;;;;2.72;1.38;;;;;32.40;96604.00;;;;8238290;28;20218;-72
2022/05/14 15:43:03;;;;;;;1.60;1.13;;;;;32.20;96602.00;;;;8231184;28;20821;-74
2022/05/14 15:47:07;;;;;;;1.70;1.60;;;;;32.10;96598.00;;;;8237796;28;20725;-73
2022/05/14 15:51:13;;;;;;;3.13;1.45;;;;;31.90;96599.00;;;;8247964;28;20230;-74
2022/05/14 15:55:20;;;;;;;2.30;1.65;;;;;32.00;96594.00;;;;8235784;28;20233;-73
2022/05/14 15:59:25;;;;;;;1.98;1.75;;;;;32.00;96590.00;;;;8242527;28;20227;-72
2022/05/14 16:03:28;;;;;;;2.25;1.60;;;;;32.10;96591.00;;;;8248346;28;20246;-73
2022/05/14 16:07:32;;;;;;;1.08;1.08;;;;;32.10;96591.00;;;;8235499;28;20226;-73
2022/05/14 16:16:02;;;;;;;4.80;1.27;;;;;31.70;96592.00;;;;8227655;28;20318;-73
2022/05/14 16:20:07;;;;;;;1.45;1.20;;;;;31.80;96596.00;;;;8237297;28;20222;-72
2022/05/14 16:24:10;;;;;;;1.75;1.25;;;;;31.70;96585.00;;;;8235821;28;20321;-71
2022/05/14 16:28:14;;;;;;;1.27;1.17;;;;;31.40;96582.00;;;;8243787;28;20218;-73
2022/05/14 16:32:18;;;;;;;3.05;1.35;;;;;31.80;96586.00;;;;8236755;28;20795;-74
2022/05/14 16:36:23;;;;;;;1.30;1.30;;;;;32.20;96594.00;;;;8239809;28;20222;-72
2022/05/14 16:40:26;;;;;;;1.60;1.40;;;;;32.20;96597.00;;;;8241259;28;20262;-72
2022/05/14 16:44:30;;;;;;;2.47;1.50;;;;;32.30;96591.00;;;;8234141;28;20843;-73
2022/05/14 16:48:34;;;;;;;1.30;1.30;;;;;32.40;96591.00;;;;8232089;28;20770;-73
2022/05/14 16:52:40;;;;;;;3.88;1.50;;;;;32.40;96596.00;;;;8234349;28;20235;-74
2022/05/14 16:56:43;;;;;;;3.05;1.30;;;;;32.70;96601.00;;;;8235121;28;21088;-73
2022/05/14 17:00:48;;;;;;;1.40;1.30;;;;;32.90;96595.00;;;;8234976;28;20317;-73
2022/05/14 17:04:53;;;;;;;4.07;1.67;;;;;33.00;96594.00;;;;8229348;28;20375;-73
2022/05/14 17:08:57;;;;;;;1.20;1.20;;;;;32.80;96601.00;;;;8234142;28;20233;-73
2022/05/14 17:13:16;;;;;;;1.30;1.20;;;;;32.40;96602.00;;;;8235292;28;20918;-73
2022/05/14 17:17:19;;;;;;;6.18;2.05;;;;;31.80;96598.00;;;;8244002;28;20305;-75
2022/05/14 17:21:23;;;;;;;3.90;1.40;;;;;31.30;96603.00;;;;8247764;28;20238;-73
2022/05/14 17:25:27;;;;;;;5.25;1.30;;;;;31.10;96606.00;;;;8241457;28;21851;-74
2022/05/14 17:29:30;;;;;;;6.15;1.40;;;;;31.00;96604.00;;;;8243984;28;20262;-73
2022/05/14 17:33:34;;;;;;;3.97;1.20;;;;;30.40;96600.00;;;;8248701;28;20671;-72
2022/05/14 17:42:00;;;;;;;3.05;1.50;;;;;29.30;96600.00;;;;8238222;28;20232;-71
2022/05/14 17:46:03;;;;;;;2.60;1.30;;;;;29.20;96611.00;;;;8248495;28;20291;-72
2022/05/14 17:50:10;;;;;;;3.65;1.45;;;;;29.10;96613.00;;;;8247338;28;20625;-72
2022/05/14 17:54:15;;;;;;;2.10;1.38;;;;;28.70;96612.00;;;;8252585;28;20246;-72
2022/05/14 17:58:18;;;;;;;2.00;1.48;;;;;27.70;96612.00;;;;8244514;28;20226;-73
2022/05/14 18:02:22;;;;;;;1.27;1.20;;;;;26.70;96613.00;;;;8249751;28;20601;-71
2022/05/14 18:06:28;;;;;;;2.63;1.60;;;;;25.70;96611.00;;;;8240918;28;20557;-75
2022/05/14 18:11:40;;;;;;;3.38;1.92;;;;;24.90;96606.00;;;;8226231;28;20270;-73
2022/05/14 18:15:03;;;;;;;2.25;1.70;;;;;23.90;96614.00;;;;8233344;28;20229;-73
2022/05/14 18:19:07;;;;;;;2.10;1.65;;;;;23.10;96616.00;;;;8255159;28;20278;-72
2022/05/14 18:23:14;;;;;;;4.53;1.90;;;;;22.30;96614.00;;;;8244736;28;20604;-72
2022/05/14 18:27:26;;;;;;;9.75;3.00;;;;;21.50;96616.00;;;;8241452;28;20231;-75
2022/05/14 18:31:32;;;;;;;7.32;5.00;;;;;20.80;96618.00;;;;8239223;28;20306;-72
2022/05/14 18:35:40;;;;;;;22.45;11.27;;;;;20.40;96614.00;;;;8251707;28;20331;-76
2022/05/14 18:39:47;;;;;;;11.15;4.25;;;;;19.90;96618.00;;;;8249885;28;20545;-76
2022/05/14 18:43:54;;;;;;;22.25;11.82;;;;;19.40;96619.00;;;;8257695;28;20232;-74
2022/05/14 18:47:58;;;;;;;5.82;2.63;;;;;19.00;96621.00;;;;8231069;28;20309;-73
2022/05/14 18:52:02;;;;;;;5.15;3.15;;;;;18.70;96628.00;;;;8234192;28;20230;-73
2022/05/14 18:56:06;;;;;;;4.13;2.22;;;;;18.40;96628.00;;;;8244089;28;20230;-71
2022/05/14 19:00:12;;;;;;;12.95;6.85;;;;;18.00;96632.00;;;;8246484;28;20310;-71
2022/05/14 19:08:37;;;;;;;6.30;2.75;;;;;17.30;96640.00;;;;8248834;28;20743;-71
2022/05/14 19:12:40;;;;;;;3.80;2.50;;;;;17.00;96640.00;;;;8245399;28;20313;-70
2022/05/14 19:16:46;;;;;;;5.32;2.03;;;;;16.70;96650.00;;;;8247839;28;20227;-70
2022/05/14 19:20:50;;;;;;;4.28;2.70;;;;;16.50;96649.00;;;;8250912;28;20346;-72
2022/05/14 19:24:53;;;;;;;4.43;2.20;;;;;16.30;96657.00;;;;8247629;28;20689;-74
2022/05/14 19:28:56;;;;;;;4.32;2.15;;;;;16.00;96652.00;;;;8247890;28;20702;-69
2022/05/14 19:33:01;;;;;;;4.22;2.28;;;;;15.90;96655.00;;;;8248700;28;20234;-72
2022/05/14 19:37:10;;;;;;;2.95;1.83;;;;;15.80;96670.00;;;;8250024;28;20317;-72
2022/05/14 19:41:18;;;;;;;11.68;2.50;;;;;15.70;96675.00;;;;8247062;28;20238;-75
2022/05/14 19:45:29;;;;;;;5.03;2.65;;;;;15.50;96667.00;;;;8251678;28;20243;-76
2022/05/14 19:49:37;;;;;;;3.60;2.50;;;;;15.40;96671.00;;;;8251756;28;20234;-75
2022/05/14 19:53:46;;;;;;;7.95;2.22;;;;;15.20;96668.00;;;;8240117;28;20321;-74
2022/05/14 19:57:53;;;;;;;2.88;2.33;;;;;15.10;96667.00;;;;8225989;28;20225;-71
2022/05/14 20:02:00;;;;;;;2.70;2.47;;;;;15.00;96670.00;;;;8231776;28;20635;-72
2022/05/14 20:06:11;;;;;;;5.53;2.63;;;;;14.80;96667.00;;;;8217453;28;20239;-73
2022/05/14 20:10:19;;;;;;;5.18;2.33;;;;;14.70;96680.00;;;;8232933;28;20770;-70
2022/05/14 20:14:36;;;;;;;4.53;2.22;;;;;14.50;96679.00;;;;8228435;28;20257;-69
2022/05/14 20:23:14;;;;;;;4.20;2.75;;;;;14.30;96686.00;;;;8230787;28;20233;-73
2022/05/14 20:27:20;;;;;;;3.83;2.60;;;;;14.20;96682.00;;;;8249232;28;20245;-73
2022/05/14 20:31:24;;;;;;;7.85;2.80;;;;;14.10;96685.00;;;;8248143;28;20619;-71
2022/05/14 20:35:28;;;;;;;6.85;3.20;;;;;14.00;96681.00;;;;8252163;28;20220;-72
2022/05/14 20:39:32;;;;;;;7.78;3.80;;;;;13.80;96683.00;;;;8246681;28;20599;-73
2022/05/14 20:43:36;;;;;;;4.45;3.10;;;;;13.70;96686.00;;;;8244810;28;20305;-69
2022/05/14 20:47:39;;;;;;;5.90;3.63;;;;;13.60;96681.00;;;;8248959;28;20227;-72
2022/05/14 20:51:43;;;;;;;6.40;3.78;;;;;13.50;96687.00;;;;8242020;28;20247;-73
2022/05/14 20:55:47;;;;;;;9.55;3.70;;;;;13.40;96687.00;;;;8247359;28;20315;-74
2022/05/14 20:59:51;;;;;;;9.55;3.67;;;;;13.30;96690.00;;;;8247080;28;20234;-72
2022/05/14 21:03:54;;;;;;;4.60;3.60;;;;;13.20;96684.00;;;;8247065;28;20253;-71
2022/05/14 21:07:57;;;;;;;9.18;3.50;;;;;13.20;96691.00;;;;8248807;28;20230;-71